PIA303 OPLA-OPKC
Flight info
| Callsign | PIA303 |
|---|---|
| Flight time | 1h 24m |
| Altitude | 34000 |
| Route | MIMAL G214 RK J112 NH |
| Aircraft | B772/H-SDE2E3FGHIJ5LORVWXY/LB1D1 |
Departure
| Time | 2026-04-24 10:24 |
|---|---|
| Airport | Allama Iqbal International Airport (OPLA) |
Arrival
| Time | 2026-04-24 11:49 |
|---|---|
| Airport | Jinnah International Airport (OPKC) |
| Time | Latitude | Longitude | Altitude | Speed | Heading |
|---|---|---|---|---|---|
| 2026-04-24 08:25 | 31.52028 | 74.40764 | 722 ft | 0 kts | 270° |
| 2026-04-24 10:12 | 31.52028 | 74.40779 | 724 ft | 4 kts | 270° |
| 2026-04-24 10:12 | 31.52028 | 74.40805 | 722 ft | 3 kts | 269° |
| 2026-04-24 10:12 | 31.52031 | 74.40831 | 722 ft | 4 kts | 236° |
| 2026-04-24 10:12 | 31.52039 | 74.40840 | 724 ft | 3 kts | 180° |
| 2026-04-24 10:13 | 31.52065 | 74.40841 | 725 ft | 4 kts | 181° |
| 2026-04-24 10:13 | 31.52073 | 74.40841 | 724 ft | 0 kts | 181° |
| 2026-04-24 10:15 | 31.52058 | 74.40840 | 723 ft | 4 kts | 181° |
| 2026-04-24 10:15 | 31.52022 | 74.40839 | 722 ft | 7 kts | 181° |
| 2026-04-24 10:15 | 31.51968 | 74.40838 | 724 ft | 9 kts | 181° |
| 2026-04-24 10:16 | 31.51896 | 74.40838 | 724 ft | 11 kts | 178° |
| 2026-04-24 10:16 | 31.51808 | 74.40839 | 725 ft | 14 kts | 179° |
| 2026-04-24 10:16 | 31.51728 | 74.40829 | 723 ft | 10 kts | 210° |
| 2026-04-24 10:16 | 31.51714 | 74.40752 | 726 ft | 11 kts | 273° |
| 2026-04-24 10:17 | 31.51702 | 74.40675 | 725 ft | 8 kts | 228° |
| 2026-04-24 10:17 | 31.51646 | 74.40661 | 724 ft | 9 kts | 179° |
| 2026-04-24 10:17 | 31.51574 | 74.40660 | 724 ft | 12 kts | 181° |
| 2026-04-24 10:17 | 31.51486 | 74.40656 | 723 ft | 14 kts | 182° |
| 2026-04-24 10:18 | 31.51382 | 74.40653 | 724 ft | 16 kts | 179° |
| 2026-04-24 10:18 | 31.51266 | 74.40655 | 722 ft | 18 kts | 180° |
| 2026-04-24 10:18 | 31.51138 | 74.40651 | 722 ft | 19 kts | 180° |
| 2026-04-24 10:18 | 31.51001 | 74.40649 | 723 ft | 20 kts | 180° |
| 2026-04-24 10:19 | 31.50856 | 74.40647 | 721 ft | 21 kts | 182° |
| 2026-04-24 10:19 | 31.50743 | 74.40602 | 721 ft | 13 kts | 223° |
| 2026-04-24 10:19 | 31.50722 | 74.40579 | 722 ft | 0 kts | 225° |
| 2026-04-24 10:20 | 31.50688 | 74.40537 | 724 ft | 14 kts | 227° |
| 2026-04-24 10:21 | 31.50659 | 74.40441 | 723 ft | 6 kts | 271° |
| 2026-04-24 10:21 | 31.50682 | 74.40419 | 724 ft | 4 kts | 351° |
| 2026-04-24 10:21 | 31.50714 | 74.40427 | 723 ft | 5 kts | 13° |
| 2026-04-24 10:21 | 31.50734 | 74.40432 | 722 ft | 0 kts | 6° |
| 2026-04-24 10:22 | 31.50736 | 74.40432 | 722 ft | 0 kts | 4° |
| 2026-04-24 10:22 | 31.50740 | 74.40431 | 724 ft | 4 kts | 1° |
| 2026-04-24 10:22 | 31.50846 | 74.40434 | 723 ft | 25 kts | 1° |
| 2026-04-24 10:23 | 31.50896 | 74.40435 | 724 ft | 0 kts | 1° |
| 2026-04-24 10:23 | 31.50980 | 74.40438 | 723 ft | 40 kts | 1° |
| 2026-04-24 10:23 | 31.51541 | 74.40449 | 724 ft | 118 kts | 1° |
| 2026-04-24 10:23 | 31.52594 | 74.40466 | 734 ft | 181 kts | 0° |
| 2026-04-24 10:24 | 31.53959 | 74.40488 | 1168 ft | 205 kts | 358° |
| 2026-04-24 10:24 | 31.55416 | 74.40531 | 1933 ft | 211 kts | 358° |
| 2026-04-24 10:24 | 31.56855 | 74.40555 | 2902 ft | 204 kts | 352° |
| 2026-04-24 10:24 | 31.58179 | 74.39908 | 3218 ft | 220 kts | 313° |
| 2026-04-24 10:25 | 31.58836 | 74.38310 | 3799 ft | 224 kts | 278° |
| 2026-04-24 10:25 | 31.58691 | 74.36501 | 4549 ft | 227 kts | 256° |
| 2026-04-24 10:25 | 31.58151 | 74.34694 | 5080 ft | 238 kts | 250° |
| 2026-04-24 10:25 | 31.57392 | 74.32979 | 5748 ft | 241 kts | 235° |
| 2026-04-24 10:26 | 31.56306 | 74.31471 | 6471 ft | 244 kts | 230° |
| 2026-04-24 10:26 | 31.55112 | 74.29966 | 6982 ft | 257 kts | 228° |
| 2026-04-24 10:26 | 31.53855 | 74.28400 | 7408 ft | 271 kts | 228° |
| 2026-04-24 10:26 | 31.52571 | 74.26792 | 8213 ft | 270 kts | 228° |
| 2026-04-24 10:27 | 31.51291 | 74.25176 | 8993 ft | 270 kts | 228° |
| 2026-04-24 10:27 | 31.50019 | 74.23556 | 9770 ft | 270 kts | 228° |
| 2026-04-24 10:27 | 31.48746 | 74.21923 | 10328 ft | 280 kts | 229° |
| 2026-04-24 10:27 | 31.47370 | 74.20149 | 10479 ft | 306 kts | 229° |
| 2026-04-24 10:28 | 31.45881 | 74.18227 | 10664 ft | 330 kts | 229° |
| 2026-04-24 10:28 | 31.44337 | 74.16218 | 11447 ft | 333 kts | 229° |
| 2026-04-24 10:28 | 31.42797 | 74.14184 | 12436 ft | 335 kts | 230° |
| 2026-04-24 10:28 | 31.41238 | 74.12110 | 13331 ft | 341 kts | 230° |
| 2026-04-24 10:29 | 31.39668 | 74.10017 | 14231 ft | 345 kts | 230° |
| 2026-04-24 10:29 | 31.38068 | 74.07888 | 15049 ft | 351 kts | 230° |
| 2026-04-24 10:29 | 31.36440 | 74.05725 | 15915 ft | 355 kts | 230° |
| 2026-04-24 10:29 | 31.34789 | 74.03532 | 16668 ft | 362 kts | 230° |
| 2026-04-24 10:30 | 31.33105 | 74.01297 | 17416 ft | 369 kts | 230° |
| 2026-04-24 10:30 | 31.31392 | 73.99027 | 18154 ft | 375 kts | 230° |
| 2026-04-24 10:30 | 31.29673 | 73.96750 | 18788 ft | 380 kts | 230° |
| 2026-04-24 10:30 | 31.27907 | 73.94414 | 19452 ft | 384 kts | 230° |
| 2026-04-24 10:31 | 31.26128 | 73.92064 | 20156 ft | 387 kts | 230° |
| 2026-04-24 10:31 | 31.24331 | 73.89690 | 20847 ft | 390 kts | 230° |
| 2026-04-24 10:31 | 31.22525 | 73.87307 | 21512 ft | 394 kts | 229° |
| 2026-04-24 10:31 | 31.20696 | 73.84895 | 22151 ft | 398 kts | 229° |
| 2026-04-24 10:32 | 31.18850 | 73.82463 | 22789 ft | 402 kts | 229° |
| 2026-04-24 10:32 | 31.17012 | 73.80040 | 23374 ft | 405 kts | 229° |
| 2026-04-24 10:32 | 31.15129 | 73.77561 | 23910 ft | 409 kts | 229° |
| 2026-04-24 10:32 | 31.13236 | 73.75071 | 24439 ft | 412 kts | 229° |
| 2026-04-24 10:33 | 31.11327 | 73.72561 | 24958 ft | 415 kts | 229° |
| 2026-04-24 10:33 | 31.09400 | 73.70028 | 25508 ft | 419 kts | 229° |
| 2026-04-24 10:33 | 31.07457 | 73.67476 | 26037 ft | 422 kts | 229° |
| 2026-04-24 10:33 | 31.05500 | 73.64909 | 26559 ft | 425 kts | 229° |
| 2026-04-24 10:34 | 31.03524 | 73.62318 | 27085 ft | 429 kts | 229° |
| 2026-04-24 10:34 | 31.01533 | 73.59708 | 27586 ft | 432 kts | 229° |
| 2026-04-24 10:34 | 30.99525 | 73.57079 | 28105 ft | 436 kts | 229° |
| 2026-04-24 10:34 | 30.97497 | 73.54425 | 28634 ft | 439 kts | 229° |
| 2026-04-24 10:35 | 30.95478 | 73.51784 | 29082 ft | 443 kts | 229° |
| 2026-04-24 10:35 | 30.93420 | 73.49094 | 29529 ft | 447 kts | 229° |
| 2026-04-24 10:35 | 30.91339 | 73.46375 | 30011 ft | 450 kts | 229° |
| 2026-04-24 10:35 | 30.89238 | 73.43634 | 30421 ft | 453 kts | 229° |
| 2026-04-24 10:36 | 30.87139 | 73.40898 | 30853 ft | 455 kts | 229° |
| 2026-04-24 10:36 | 30.85025 | 73.38143 | 31271 ft | 457 kts | 229° |
| 2026-04-24 10:36 | 30.82900 | 73.35376 | 31663 ft | 459 kts | 229° |
| 2026-04-24 10:36 | 30.80784 | 73.32623 | 32030 ft | 461 kts | 229° |
| 2026-04-24 10:37 | 30.78638 | 73.29833 | 32374 ft | 464 kts | 229° |
| 2026-04-24 10:37 | 30.76473 | 73.27019 | 32713 ft | 466 kts | 229° |
| 2026-04-24 10:37 | 30.74305 | 73.24204 | 33038 ft | 467 kts | 229° |
| 2026-04-24 10:37 | 30.72127 | 73.21378 | 33339 ft | 469 kts | 229° |
| 2026-04-24 10:38 | 30.69974 | 73.18587 | 33754 ft | 468 kts | 229° |
| 2026-04-24 10:38 | 30.67797 | 73.15767 | 34182 ft | 466 kts | 229° |
| 2026-04-24 10:38 | 30.65643 | 73.12979 | 34589 ft | 463 kts | 229° |
| 2026-04-24 10:38 | 30.64212 | 73.11128 | 34854 ft | 462 kts | 229° |
| 2026-04-24 10:39 | 30.62063 | 73.08349 | 35245 ft | 461 kts | 229° |
| 2026-04-24 10:39 | 30.59917 | 73.05576 | 35610 ft | 460 kts | 229° |
| 2026-04-24 10:39 | 30.57773 | 73.02808 | 35965 ft | 459 kts | 229° |
| 2026-04-24 10:39 | 30.54952 | 72.99168 | 36453 ft | 457 kts | 229° |
| 2026-04-24 10:40 | 30.53540 | 72.97348 | 36688 ft | 456 kts | 229° |
| 2026-04-24 10:40 | 30.51417 | 72.94613 | 37045 ft | 455 kts | 229° |
| 2026-04-24 10:40 | 30.49299 | 72.91885 | 37391 ft | 454 kts | 229° |
| 2026-04-24 10:40 | 30.47183 | 72.89163 | 37708 ft | 453 kts | 229° |
| 2026-04-24 10:41 | 30.45070 | 72.86445 | 38049 ft | 452 kts | 229° |
| 2026-04-24 10:41 | 30.42961 | 72.83735 | 38353 ft | 452 kts | 229° |
| 2026-04-24 10:41 | 30.40881 | 72.81065 | 38591 ft | 451 kts | 229° |
| 2026-04-24 10:41 | 30.38774 | 72.78360 | 38803 ft | 451 kts | 230° |
| 2026-04-24 10:42 | 30.36664 | 72.75654 | 38998 ft | 452 kts | 229° |
| 2026-04-24 10:42 | 30.34558 | 72.72957 | 39195 ft | 452 kts | 229° |
| 2026-04-24 10:42 | 30.32445 | 72.70250 | 39415 ft | 452 kts | 230° |
| 2026-04-24 10:42 | 30.30333 | 72.67548 | 39600 ft | 452 kts | 230° |
| 2026-04-24 10:43 | 30.28233 | 72.64862 | 39649 ft | 455 kts | 230° |
| 2026-04-24 10:43 | 30.23961 | 72.59404 | 39721 ft | 457 kts | 230° |
| 2026-04-24 10:44 | 30.19727 | 72.54006 | 39714 ft | 451 kts | 229° |
| 2026-04-24 10:44 | 30.15516 | 72.48643 | 39714 ft | 448 kts | 230° |
| 2026-04-24 10:45 | 30.11324 | 72.43310 | 39718 ft | 447 kts | 229° |
| 2026-04-24 10:45 | 30.07136 | 72.37989 | 39719 ft | 447 kts | 229° |
| 2026-04-24 10:46 | 30.02967 | 72.32700 | 39728 ft | 448 kts | 229° |
| 2026-04-24 10:46 | 29.98758 | 72.27368 | 39725 ft | 449 kts | 229° |
| 2026-04-24 10:47 | 29.94530 | 72.22018 | 39724 ft | 451 kts | 229° |
| 2026-04-24 10:47 | 29.90311 | 72.16687 | 39726 ft | 452 kts | 229° |
| 2026-04-24 10:48 | 29.86060 | 72.11324 | 39728 ft | 453 kts | 229° |
| 2026-04-24 10:48 | 29.81829 | 72.05992 | 39723 ft | 453 kts | 229° |
| 2026-04-24 10:49 | 29.77558 | 72.00619 | 39727 ft | 454 kts | 229° |
| 2026-04-24 10:49 | 29.73308 | 71.95278 | 39717 ft | 454 kts | 229° |
| 2026-04-24 10:50 | 29.69028 | 71.89907 | 39728 ft | 454 kts | 229° |
| 2026-04-24 10:50 | 29.64744 | 71.84539 | 39721 ft | 454 kts | 229° |
| 2026-04-24 10:51 | 29.60495 | 71.79221 | 39726 ft | 454 kts | 229° |
| 2026-04-24 10:51 | 29.56219 | 71.73876 | 39726 ft | 454 kts | 229° |
| 2026-04-24 10:52 | 29.51936 | 71.68530 | 39728 ft | 454 kts | 229° |
| 2026-04-24 10:52 | 29.47659 | 71.63199 | 39727 ft | 453 kts | 229° |
| 2026-04-24 10:53 | 29.43411 | 71.57911 | 39737 ft | 453 kts | 229° |
| 2026-04-24 10:53 | 29.39111 | 71.52567 | 39717 ft | 457 kts | 231° |
| 2026-04-24 10:54 | 29.34755 | 71.47154 | 39733 ft | 464 kts | 231° |
| 2026-04-24 10:54 | 29.30375 | 71.41724 | 39737 ft | 467 kts | 230° |
| 2026-04-24 10:55 | 29.25954 | 71.36252 | 39725 ft | 467 kts | 230° |
| 2026-04-24 10:55 | 29.21562 | 71.30823 | 39727 ft | 466 kts | 230° |
| 2026-04-24 10:56 | 29.17155 | 71.25383 | 39725 ft | 464 kts | 230° |
| 2026-04-24 10:56 | 29.12767 | 71.19972 | 39724 ft | 462 kts | 230° |
| 2026-04-24 10:57 | 29.08417 | 71.14615 | 39740 ft | 460 kts | 230° |
| 2026-04-24 10:57 | 29.04049 | 71.09243 | 39736 ft | 459 kts | 230° |
| 2026-04-24 10:58 | 28.99720 | 71.03926 | 39732 ft | 459 kts | 230° |
| 2026-04-24 10:58 | 28.95357 | 70.98574 | 39714 ft | 460 kts | 230° |
| 2026-04-24 10:59 | 28.90975 | 70.93207 | 39726 ft | 461 kts | 230° |
| 2026-04-24 10:59 | 28.86616 | 70.87873 | 39720 ft | 462 kts | 230° |
| 2026-04-24 11:00 | 28.82214 | 70.82496 | 39717 ft | 464 kts | 230° |
| 2026-04-24 11:00 | 28.77801 | 70.77113 | 39718 ft | 464 kts | 230° |
| 2026-04-24 11:01 | 28.73376 | 70.71722 | 39707 ft | 465 kts | 230° |
| 2026-04-24 11:01 | 28.68964 | 70.66352 | 39711 ft | 466 kts | 230° |
| 2026-04-24 11:02 | 28.64526 | 70.60960 | 39709 ft | 466 kts | 230° |
| 2026-04-24 11:02 | 28.60107 | 70.55596 | 39706 ft | 467 kts | 230° |
| 2026-04-24 11:03 | 28.55652 | 70.50197 | 39709 ft | 467 kts | 230° |
| 2026-04-24 11:03 | 28.51192 | 70.44797 | 39709 ft | 468 kts | 230° |
| 2026-04-24 11:04 | 28.46757 | 70.39436 | 39706 ft | 468 kts | 230° |
| 2026-04-24 11:04 | 28.42284 | 70.34034 | 39707 ft | 469 kts | 230° |
| 2026-04-24 11:05 | 28.37793 | 70.28624 | 39704 ft | 470 kts | 229° |
| 2026-04-24 11:05 | 28.32865 | 70.23666 | 39713 ft | 475 kts | 222° |
| 2026-04-24 11:06 | 28.27690 | 70.19021 | 39715 ft | 477 kts | 221° |
| 2026-04-24 11:06 | 28.22495 | 70.14361 | 39703 ft | 478 kts | 222° |
| 2026-04-24 11:07 | 28.14688 | 70.07292 | 39702 ft | 480 kts | 222° |
| 2026-04-24 11:07 | 28.09471 | 70.02559 | 39707 ft | 480 kts | 222° |
| 2026-04-24 11:08 | 28.04238 | 69.97818 | 39708 ft | 481 kts | 222° |
| 2026-04-24 11:08 | 27.99034 | 69.93111 | 39706 ft | 481 kts | 222° |
| 2026-04-24 11:09 | 27.93790 | 69.88375 | 39705 ft | 481 kts | 222° |
| 2026-04-24 11:09 | 27.88557 | 69.83655 | 39704 ft | 480 kts | 222° |
| 2026-04-24 11:10 | 27.83362 | 69.78975 | 39704 ft | 480 kts | 222° |
| 2026-04-24 11:10 | 27.78122 | 69.74261 | 39703 ft | 479 kts | 222° |
| 2026-04-24 11:11 | 27.72936 | 69.69601 | 39702 ft | 479 kts | 222° |
| 2026-04-24 11:11 | 27.67720 | 69.64919 | 39697 ft | 479 kts | 222° |
| 2026-04-24 11:12 | 27.62494 | 69.60234 | 39697 ft | 479 kts | 222° |
| 2026-04-24 11:12 | 27.57305 | 69.55589 | 39700 ft | 479 kts | 222° |
| 2026-04-24 11:13 | 27.52085 | 69.50921 | 39696 ft | 479 kts | 222° |
| 2026-04-24 11:13 | 27.46861 | 69.46255 | 39697 ft | 479 kts | 222° |
| 2026-04-24 11:14 | 27.41634 | 69.41593 | 39695 ft | 479 kts | 222° |
| 2026-04-24 11:14 | 27.36431 | 69.36957 | 39692 ft | 479 kts | 222° |
| 2026-04-24 11:15 | 27.31207 | 69.32308 | 39690 ft | 479 kts | 222° |
| 2026-04-24 11:15 | 27.25966 | 69.27653 | 39690 ft | 479 kts | 222° |
| 2026-04-24 11:16 | 27.20673 | 69.23069 | 39690 ft | 480 kts | 221° |
| 2026-04-24 11:16 | 27.15386 | 69.18544 | 39686 ft | 480 kts | 221° |
| 2026-04-24 11:17 | 27.10071 | 69.13988 | 39688 ft | 480 kts | 221° |
| 2026-04-24 11:17 | 27.04765 | 69.09433 | 39688 ft | 479 kts | 221° |
| 2026-04-24 11:18 | 26.99505 | 69.04918 | 39693 ft | 479 kts | 221° |
| 2026-04-24 11:18 | 26.94196 | 69.00368 | 39690 ft | 479 kts | 221° |
| 2026-04-24 11:19 | 26.88894 | 68.95830 | 39695 ft | 479 kts | 221° |
| 2026-04-24 11:19 | 26.83624 | 68.91325 | 39689 ft | 479 kts | 221° |
| 2026-04-24 11:20 | 26.78382 | 68.86853 | 39092 ft | 468 kts | 221° |
| 2026-04-24 11:20 | 26.75779 | 68.84631 | 38227 ft | 473 kts | 221° |
| 2026-04-24 11:20 | 26.73135 | 68.82371 | 37065 ft | 481 kts | 221° |
| 2026-04-24 11:21 | 26.70455 | 68.80084 | 35949 ft | 487 kts | 221° |
| 2026-04-24 11:21 | 26.67782 | 68.77807 | 34965 ft | 491 kts | 220° |
| 2026-04-24 11:21 | 26.65063 | 68.75495 | 34266 ft | 489 kts | 220° |
| 2026-04-24 11:21 | 26.62368 | 68.73207 | 33747 ft | 483 kts | 220° |
| 2026-04-24 11:22 | 26.59705 | 68.70944 | 33191 ft | 477 kts | 220° |
| 2026-04-24 11:22 | 26.57085 | 68.68707 | 32662 ft | 470 kts | 220° |
| 2026-04-24 11:22 | 26.54530 | 68.66520 | 32147 ft | 464 kts | 220° |
| 2026-04-24 11:22 | 26.51974 | 68.64330 | 31606 ft | 459 kts | 220° |
| 2026-04-24 11:23 | 26.49454 | 68.62172 | 31066 ft | 454 kts | 219° |
| 2026-04-24 11:23 | 26.46947 | 68.60026 | 30533 ft | 450 kts | 219° |
| 2026-04-24 11:23 | 26.44480 | 68.57917 | 30016 ft | 445 kts | 219° |
| 2026-04-24 11:23 | 26.42034 | 68.55827 | 29476 ft | 440 kts | 219° |
| 2026-04-24 11:24 | 26.39616 | 68.53763 | 28865 ft | 436 kts | 219° |
| 2026-04-24 11:24 | 26.37241 | 68.51737 | 28287 ft | 432 kts | 219° |
| 2026-04-24 11:24 | 26.34860 | 68.49707 | 27710 ft | 428 kts | 219° |
| 2026-04-24 11:24 | 26.32509 | 68.47703 | 27126 ft | 424 kts | 219° |
| 2026-04-24 11:25 | 26.30177 | 68.45717 | 26588 ft | 420 kts | 219° |
| 2026-04-24 11:25 | 26.27859 | 68.43742 | 26050 ft | 417 kts | 219° |
| 2026-04-24 11:25 | 26.25565 | 68.41789 | 25529 ft | 414 kts | 219° |
| 2026-04-24 11:25 | 26.23276 | 68.39842 | 25028 ft | 411 kts | 219° |
| 2026-04-24 11:26 | 26.21039 | 68.37948 | 24590 ft | 407 kts | 218° |
| 2026-04-24 11:26 | 26.18743 | 68.36119 | 24148 ft | 403 kts | 216° |
| 2026-04-24 11:26 | 26.16433 | 68.34359 | 23736 ft | 399 kts | 216° |
| 2026-04-24 11:26 | 26.14132 | 68.32631 | 23311 ft | 396 kts | 216° |
| 2026-04-24 11:27 | 26.11882 | 68.30942 | 22823 ft | 393 kts | 216° |
| 2026-04-24 11:27 | 26.09604 | 68.29225 | 22325 ft | 390 kts | 216° |
| 2026-04-24 11:27 | 26.07371 | 68.27533 | 21846 ft | 387 kts | 216° |
| 2026-04-24 11:27 | 26.05176 | 68.25865 | 21360 ft | 384 kts | 216° |
| 2026-04-24 11:28 | 26.03714 | 68.24752 | 21054 ft | 382 kts | 216° |
| 2026-04-24 11:28 | 26.01530 | 68.23085 | 20593 ft | 380 kts | 216° |
| 2026-04-24 11:28 | 25.99360 | 68.21429 | 20146 ft | 377 kts | 216° |
| 2026-04-24 11:28 | 25.97203 | 68.19784 | 19699 ft | 375 kts | 216° |
| 2026-04-24 11:29 | 25.95057 | 68.18150 | 19260 ft | 372 kts | 216° |
| 2026-04-24 11:29 | 25.92927 | 68.16527 | 18830 ft | 370 kts | 217° |
| 2026-04-24 11:29 | 25.90808 | 68.14914 | 18396 ft | 368 kts | 216° |
| 2026-04-24 11:29 | 25.88703 | 68.13311 | 17972 ft | 366 kts | 216° |
| 2026-04-24 11:30 | 25.86604 | 68.11711 | 17422 ft | 366 kts | 216° |
| 2026-04-24 11:30 | 25.84508 | 68.10116 | 16930 ft | 364 kts | 216° |
| 2026-04-24 11:30 | 25.82425 | 68.08532 | 16455 ft | 362 kts | 216° |
| 2026-04-24 11:30 | 25.80355 | 68.06960 | 16042 ft | 359 kts | 216° |
| 2026-04-24 11:31 | 25.78304 | 68.05402 | 15709 ft | 356 kts | 216° |
| 2026-04-24 11:31 | 25.76285 | 68.03870 | 15382 ft | 356 kts | 216° |
| 2026-04-24 11:31 | 25.74238 | 68.02317 | 15057 ft | 355 kts | 215° |
| 2026-04-24 11:31 | 25.72200 | 68.00770 | 14738 ft | 354 kts | 215° |
| 2026-04-24 11:32 | 25.70167 | 67.99227 | 14427 ft | 354 kts | 215° |
| 2026-04-24 11:32 | 25.68134 | 67.97686 | 14097 ft | 354 kts | 215° |
| 2026-04-24 11:32 | 25.66097 | 67.96143 | 13769 ft | 353 kts | 215° |
| 2026-04-24 11:32 | 25.64063 | 67.94602 | 13435 ft | 353 kts | 215° |
| 2026-04-24 11:33 | 25.62064 | 67.93088 | 13087 ft | 353 kts | 215° |
| 2026-04-24 11:33 | 25.60046 | 67.91561 | 12764 ft | 348 kts | 215° |
| 2026-04-24 11:33 | 25.58058 | 67.90058 | 12446 ft | 343 kts | 214° |
| 2026-04-24 11:33 | 25.56100 | 67.88578 | 12137 ft | 338 kts | 215° |
| 2026-04-24 11:34 | 25.54160 | 67.87112 | 11828 ft | 337 kts | 215° |
| 2026-04-24 11:34 | 25.52231 | 67.85654 | 11531 ft | 335 kts | 214° |
| 2026-04-24 11:34 | 25.50305 | 67.84200 | 11218 ft | 334 kts | 215° |
| 2026-04-24 11:34 | 25.48382 | 67.82749 | 10919 ft | 332 kts | 215° |
| 2026-04-24 11:35 | 25.46505 | 67.81332 | 10636 ft | 328 kts | 215° |
| 2026-04-24 11:35 | 25.44636 | 67.79922 | 10324 ft | 322 kts | 215° |
| 2026-04-24 11:35 | 25.42801 | 67.78539 | 10043 ft | 316 kts | 215° |
| 2026-04-24 11:35 | 25.40993 | 67.77176 | 9747 ft | 311 kts | 215° |
| 2026-04-24 11:36 | 25.39233 | 67.75850 | 9598 ft | 300 kts | 214° |
| 2026-04-24 11:36 | 25.37530 | 67.74568 | 9388 ft | 293 kts | 215° |
| 2026-04-24 11:36 | 25.35843 | 67.73297 | 8946 ft | 294 kts | 215° |
| 2026-04-24 11:36 | 25.34162 | 67.72031 | 8677 ft | 289 kts | 215° |
| 2026-04-24 11:37 | 25.32505 | 67.70784 | 8369 ft | 286 kts | 215° |
| 2026-04-24 11:37 | 25.30876 | 67.69558 | 8085 ft | 282 kts | 215° |
| 2026-04-24 11:37 | 25.29262 | 67.68346 | 7845 ft | 280 kts | 215° |
| 2026-04-24 11:37 | 25.27661 | 67.67142 | 7588 ft | 276 kts | 215° |
| 2026-04-24 11:38 | 25.26094 | 67.65963 | 7335 ft | 275 kts | 215° |
| 2026-04-24 11:38 | 25.24511 | 67.64774 | 7086 ft | 274 kts | 215° |
| 2026-04-24 11:38 | 25.22936 | 67.63590 | 6848 ft | 273 kts | 215° |
| 2026-04-24 11:38 | 25.21362 | 67.62410 | 6599 ft | 273 kts | 215° |
| 2026-04-24 11:39 | 25.19794 | 67.61233 | 6343 ft | 272 kts | 215° |
| 2026-04-24 11:39 | 25.18227 | 67.60057 | 6094 ft | 272 kts | 215° |
| 2026-04-24 11:39 | 25.16664 | 67.58885 | 5837 ft | 271 kts | 215° |
| 2026-04-24 11:39 | 25.15102 | 67.57714 | 5588 ft | 270 kts | 215° |
| 2026-04-24 11:40 | 25.13563 | 67.56559 | 5333 ft | 269 kts | 215° |
| 2026-04-24 11:40 | 25.12008 | 67.55393 | 5086 ft | 269 kts | 215° |
| 2026-04-24 11:40 | 25.10461 | 67.54233 | 4830 ft | 268 kts | 215° |
| 2026-04-24 11:40 | 25.08930 | 67.53087 | 4603 ft | 263 kts | 215° |
| 2026-04-24 11:41 | 25.07436 | 67.51969 | 4355 ft | 260 kts | 216° |
| 2026-04-24 11:41 | 25.05952 | 67.50860 | 4136 ft | 255 kts | 216° |
| 2026-04-24 11:41 | 25.04518 | 67.49787 | 4100 ft | 247 kts | 216° |
| 2026-04-24 11:41 | 25.03085 | 67.48712 | 3856 ft | 249 kts | 216° |
| 2026-04-24 11:42 | 25.01664 | 67.47650 | 3629 ft | 245 kts | 216° |
| 2026-04-24 11:42 | 25.00267 | 67.46608 | 3397 ft | 240 kts | 216° |
| 2026-04-24 11:42 | 24.98898 | 67.45584 | 3256 ft | 235 kts | 216° |
| 2026-04-24 11:42 | 24.97709 | 67.44404 | 3232 ft | 233 kts | 238° |
| 2026-04-24 11:43 | 24.97165 | 67.42727 | 3124 ft | 234 kts | 259° |
| 2026-04-24 11:43 | 24.96807 | 67.40973 | 2945 ft | 239 kts | 257° |
| 2026-04-24 11:43 | 24.96377 | 67.39205 | 2782 ft | 237 kts | 256° |
| 2026-04-24 11:43 | 24.95943 | 67.37498 | 2599 ft | 224 kts | 256° |
| 2026-04-24 11:44 | 24.95537 | 67.35902 | 2423 ft | 209 kts | 255° |
| 2026-04-24 11:44 | 24.95161 | 67.34421 | 2292 ft | 195 kts | 256° |
| 2026-04-24 11:44 | 24.94803 | 67.33000 | 2138 ft | 188 kts | 256° |
| 2026-04-24 11:44 | 24.94463 | 67.31650 | 2094 ft | 179 kts | 255° |
| 2026-04-24 11:45 | 24.94128 | 67.30332 | 2053 ft | 175 kts | 256° |
| 2026-04-24 11:45 | 24.93816 | 67.29096 | 1993 ft | 157 kts | 255° |
| 2026-04-24 11:45 | 24.93544 | 67.28019 | 1985 ft | 139 kts | 255° |
| 2026-04-24 11:45 | 24.93269 | 67.26931 | 1802 ft | 147 kts | 255° |
| 2026-04-24 11:46 | 24.92998 | 67.25861 | 1613 ft | 143 kts | 255° |
| 2026-04-24 11:46 | 24.92741 | 67.24843 | 1421 ft | 133 kts | 255° |
| 2026-04-24 11:46 | 24.92499 | 67.23891 | 1256 ft | 125 kts | 254° |
| 2026-04-24 11:46 | 24.92272 | 67.22994 | 1094 ft | 122 kts | 253° |
| 2026-04-24 11:47 | 24.92025 | 67.22015 | 940 ft | 139 kts | 253° |
| 2026-04-24 11:47 | 24.91776 | 67.21030 | 791 ft | 131 kts | 253° |
| 2026-04-24 11:47 | 24.91533 | 67.20070 | 596 ft | 127 kts | 253° |
| 2026-04-24 11:47 | 24.91295 | 67.19130 | 433 ft | 131 kts | 255° |
| 2026-04-24 11:48 | 24.91049 | 67.18171 | 282 ft | 130 kts | 254° |
| 2026-04-24 11:48 | 24.90829 | 67.17290 | 138 ft | 126 kts | 253° |
| 2026-04-24 11:48 | 24.90612 | 67.16447 | 107 ft | 100 kts | 255° |
| 2026-04-24 11:48 | 24.90459 | 67.15839 | 110 ft | 64 kts | 254° |
| 2026-04-24 11:49 | 24.90366 | 67.15465 | 108 ft | 46 kts | 254° |
| 2026-04-24 11:49 | 24.90290 | 67.15165 | 108 ft | 35 kts | 254° |
| 2026-04-24 11:49 | 24.90208 | 67.14984 | 108 ft | 20 kts | 229° |
| 2026-04-24 11:49 | 24.90121 | 67.14886 | 106 ft | 13 kts | 224° |
| 2026-04-24 11:50 | 24.90055 | 67.14873 | 107 ft | 10 kts | 155° |
| 2026-04-24 11:50 | 24.90032 | 67.14939 | 107 ft | 10 kts | 77° |
| 2026-04-24 11:50 | 24.90050 | 67.15014 | 106 ft | 10 kts | 75° |
| 2026-04-24 11:50 | 24.90070 | 67.15087 | 108 ft | 10 kts | 73° |
| 2026-04-24 11:51 | 24.90089 | 67.15161 | 108 ft | 10 kts | 74° |
| 2026-04-24 11:51 | 24.90108 | 67.15235 | 108 ft | 10 kts | 74° |
| 2026-04-24 11:51 | 24.90130 | 67.15323 | 106 ft | 14 kts | 76° |
| 2026-04-24 11:51 | 24.90157 | 67.15435 | 106 ft | 17 kts | 75° |
| 2026-04-24 11:52 | 24.90191 | 67.15568 | 107 ft | 19 kts | 74° |
| 2026-04-24 11:52 | 24.90230 | 67.15720 | 106 ft | 22 kts | 74° |
| 2026-04-24 11:52 | 24.90275 | 67.15888 | 108 ft | 24 kts | 73° |
| 2026-04-24 11:52 | 24.90317 | 67.16059 | 106 ft | 22 kts | 76° |
| 2026-04-24 11:53 | 24.90354 | 67.16221 | 108 ft | 22 kts | 75° |
| 2026-04-24 11:53 | 24.90378 | 67.16339 | 108 ft | 8 kts | 105° |
| 2026-04-24 11:53 | 24.90332 | 67.16366 | 107 ft | 8 kts | 172° |
| 2026-04-24 11:53 | 24.90288 | 67.16404 | 109 ft | 8 kts | 103° |
| 2026-04-24 11:54 | 24.90306 | 67.16472 | 109 ft | 11 kts | 72° |
| 2026-04-24 11:54 | 24.90321 | 67.16528 | 106 ft | 4 kts | 76° |
| 2026-04-24 11:54 | 24.90309 | 67.16555 | 107 ft | 4 kts | 138° |
| 2026-04-24 11:54 | 24.90277 | 67.16568 | 106 ft | 6 kts | 161° |
| 2026-04-24 11:55 | 24.90250 | 67.16576 | 109 ft | 2 kts | 166° |
| 2026-04-24 11:55 | 24.90241 | 67.16579 | 107 ft | 0 kts | 165° |